createdAt,value
2019-03-30T00:00:02.873Z,74.2
2019-03-30T00:01:04.477Z,74.0
2019-03-30T00:02:06.022Z,74.3
2019-03-30T00:03:07.516Z,74.4
2019-03-30T00:04:09.165Z,74.4
2019-03-30T00:05:10.778Z,74.1
2019-03-30T00:06:12.325Z,74.0
2019-03-30T00:07:13.864Z,74.5
2019-03-30T00:08:15.407Z,74.8
2019-03-30T00:09:16.849Z,74.5
2019-03-30T00:10:18.396Z,74.7
2019-03-30T00:11:19.960Z,74.3
2019-03-30T00:12:23.040Z,74.5
2019-03-30T00:13:22.972Z,74.5
2019-03-30T00:14:24.507Z,74.7
2019-03-30T00:15:26.842Z,74.3
2019-03-30T00:16:28.586Z,74.7
2019-03-30T00:17:30.254Z,74.9
2019-03-30T00:18:31.742Z,74.5
2019-03-30T00:19:35.163Z,75.0
2019-03-30T00:20:34.669Z,75.3
2019-03-30T00:21:36.173Z,75.3
2019-03-30T00:22:37.615Z,75.2
2019-03-30T00:23:39.077Z,75.4
2019-03-30T00:24:40.522Z,75.4
2019-03-30T00:25:42.002Z,75.2
2019-03-30T00:26:43.520Z,75.2
2019-03-30T00:27:44.978Z,75.7
2019-03-30T00:28:46.491Z,75.9
2019-03-30T00:29:47.971Z,75.7
2019-03-30T00:30:49.828Z,76.0
2019-03-30T00:31:50.896Z,76.1
2019-03-30T00:32:52.412Z,76.0
2019-03-30T00:33:53.829Z,75.9
2019-03-30T00:34:55.296Z,76.3
2019-03-30T00:35:56.847Z,76.5
2019-03-30T00:36:58.379Z,76.4
2019-03-30T00:37:59.882Z,76.2
2019-03-30T00:39:01.390Z,76.1
2019-03-30T00:40:02.917Z,76.5
2019-03-30T00:41:04.367Z,77.1
2019-03-30T00:42:05.836Z,76.9
2019-03-30T00:43:07.351Z,76.9
2019-03-30T00:44:08.833Z,76.5
2019-03-30T00:45:10.510Z,76.5
2019-03-30T00:46:11.865Z,77.3
2019-03-30T00:47:13.417Z,76.9
2019-03-30T00:48:14.812Z,77.6
2019-03-30T00:49:16.307Z,77.5
2019-03-30T00:50:17.767Z,78.2
2019-03-30T00:51:19.207Z,78.5
2019-03-30T00:52:20.676Z,78.3
2019-03-30T00:53:22.146Z,77.5
2019-03-30T00:54:23.631Z,77.5
2019-03-30T00:55:25.173Z,78.2
2019-03-30T00:56:26.719Z,78.1
2019-03-30T00:57:28.250Z,78.2
2019-03-30T00:58:29.790Z,78.4
2019-03-30T00:59:31.268Z,78.5
2019-03-30T01:00:32.889Z,78.0
2019-03-30T01:01:34.426Z,78.1
2019-03-30T01:02:37.592Z,78.6
2019-03-30T01:03:39.147Z,78.4
2019-03-30T01:04:40.659Z,78.6
2019-03-30T01:05:42.141Z,79.2
2019-03-30T01:06:43.672Z,79.2
2019-03-30T01:07:45.059Z,79.2
2019-03-30T01:08:46.519Z,79.4
2019-03-30T01:09:48.030Z,79.7
2019-03-30T01:10:49.566Z,80.1
2019-03-30T01:11:51.021Z,80.6
2019-03-30T01:12:52.505Z,80.2
2019-03-30T01:13:53.974Z,80.8
2019-03-30T01:14:55.449Z,81.2
2019-03-30T01:15:56.945Z,81.4
2019-03-30T01:16:58.394Z,81.5
2019-03-30T01:17:59.902Z,81.5
2019-03-30T01:19:01.431Z,81.2
2019-03-30T01:20:03.641Z,81.4
2019-03-30T01:21:04.445Z,81.5
2019-03-30T01:22:06.061Z,81.8
2019-03-30T01:23:07.428Z,81.7
2019-03-30T01:24:09.067Z,82.4
2019-03-30T01:25:10.592Z,82.4
2019-03-30T01:26:12.046Z,82.0
2019-03-30T01:27:13.642Z,82.5
2019-03-30T01:28:15.119Z,82.5
2019-03-30T01:29:16.675Z,82.5
2019-03-30T01:30:23.310Z,82.4
2019-03-30T01:31:19.711Z,82.5
2019-03-30T01:32:21.165Z,82.4
2019-03-30T01:33:22.656Z,82.4
2019-03-30T01:34:24.080Z,82.6
2019-03-30T01:35:25.694Z,82.7
2019-03-30T01:36:27.057Z,82.6
2019-03-30T01:37:28.549Z,82.4
2019-03-30T01:38:30.109Z,82.4
2019-03-30T01:39:31.586Z,82.4
2019-03-30T01:40:33.090Z,82.3
2019-03-30T01:41:34.642Z,82.3
2019-03-30T01:42:36.235Z,82.2
2019-03-30T01:43:37.733Z,82.4
2019-03-30T01:44:39.291Z,81.9
2019-03-30T01:45:40.748Z,82.3
2019-03-30T01:46:42.270Z,82.5
2019-03-30T01:47:43.737Z,82.3
2019-03-30T01:48:45.250Z,82.5
2019-03-30T01:49:47.154Z,81.5
2019-03-30T01:50:48.240Z,81.7
2019-03-30T01:51:49.688Z,81.8
2019-03-30T01:52:51.758Z,81.7
2019-03-30T01:53:53.313Z,82.1
2019-03-30T01:54:54.790Z,82.0
2019-03-30T01:55:56.268Z,82.0
2019-03-30T01:56:57.776Z,81.4
2019-03-30T01:57:59.271Z,81.2
2019-03-30T01:59:00.723Z,81.2
2019-03-30T02:00:02.253Z,81.0
2019-03-30T02:01:03.807Z,81.4
2019-03-30T02:02:05.354Z,81.4
2019-03-30T02:03:06.911Z,81.0
2019-03-30T02:04:08.396Z,81.5
2019-03-30T02:05:09.842Z,81.2
2019-03-30T02:06:11.365Z,81.4
2019-03-30T02:07:12.861Z,80.8
2019-03-30T02:08:14.343Z,81.5
2019-03-30T02:09:15.894Z,80.9
2019-03-30T02:10:17.438Z,80.5
2019-03-30T02:11:18.940Z,80.5
2019-03-30T02:12:20.500Z,81.0
2019-03-30T02:13:21.987Z,80.7
2019-03-30T02:14:23.515Z,80.3
2019-03-30T02:15:24.986Z,80.5
2019-03-30T02:16:26.513Z,80.3
2019-03-30T02:17:28.058Z,80.3
2019-03-30T02:18:29.613Z,80.3
2019-03-30T02:19:31.161Z,80.9
2019-03-30T02:20:32.677Z,80.8
2019-03-30T02:21:34.155Z,80.9
2019-03-30T02:22:35.666Z,80.8
2019-03-30T02:23:37.282Z,80.5
2019-03-30T02:24:38.839Z,80.6
2019-03-30T02:25:40.193Z,80.5
2019-03-30T02:26:41.680Z,80.3
2019-03-30T02:27:43.153Z,80.3
2019-03-30T02:28:44.707Z,80.4
2019-03-30T02:29:46.192Z,80.9
2019-03-30T02:30:47.679Z,81.2
2019-03-30T02:31:49.204Z,80.9
2019-03-30T02:32:50.656Z,81.0
2019-03-30T02:33:52.158Z,80.9
2019-03-30T02:34:53.664Z,80.9
2019-03-30T02:35:55.224Z,80.8
2019-03-30T02:36:56.804Z,81.3
2019-03-30T02:37:58.290Z,81.0
2019-03-30T02:38:59.774Z,81.5
2019-03-30T02:40:01.234Z,81.5
2019-03-30T02:41:03.035Z,81.5
2019-03-30T02:42:04.565Z,81.6
2019-03-30T02:43:06.168Z,81.4
2019-03-30T02:44:07.483Z,81.4
2019-03-30T02:45:08.854Z,81.5
2019-03-30T02:46:10.369Z,81.4
2019-03-30T02:47:11.930Z,81.3
2019-03-30T02:48:13.436Z,81.4
2019-03-30T02:49:14.956Z,81.5
2019-03-30T02:50:16.451Z,81.4
2019-03-30T02:51:18.009Z,81.5
2019-03-30T02:52:19.581Z,82.1
2019-03-30T02:53:21.056Z,81.8
2019-03-30T02:54:22.558Z,81.9
2019-03-30T02:55:24.059Z,82.7
2019-03-30T02:56:25.475Z,82.6
2019-03-30T02:57:26.974Z,82.4
2019-03-30T02:58:28.469Z,82.7
2019-03-30T02:59:29.948Z,82.0
2019-03-30T03:00:31.486Z,82.5
2019-03-30T03:01:33.034Z,82.3
2019-03-30T03:02:34.530Z,82.1
2019-03-30T03:03:36.014Z,82.3
2019-03-30T03:04:37.622Z,82.5
2019-03-30T03:05:39.058Z,82.5
2019-03-30T03:06:40.724Z,82.4
2019-03-30T03:07:42.200Z,82.3
2019-03-30T03:08:43.736Z,82.3
2019-03-30T03:09:45.238Z,82.7
2019-03-30T03:10:46.803Z,82.7
2019-03-30T03:11:48.340Z,82.5
2019-03-30T03:12:49.887Z,82.3
2019-03-30T03:13:51.509Z,82.5
2019-03-30T03:14:53.093Z,82.5
2019-03-30T03:15:54.612Z,82.3
2019-03-30T03:16:56.130Z,82.5
2019-03-30T03:17:57.678Z,82.7
2019-03-30T03:18:59.755Z,82.8
2019-03-30T03:20:01.199Z,82.7
2019-03-30T03:21:08.084Z,83.2
2019-03-30T03:22:04.191Z,83.0
2019-03-30T03:23:05.758Z,83.0
2019-03-30T03:24:07.290Z,83.2
2019-03-30T03:25:08.812Z,83.5
2019-03-30T03:26:10.312Z,83.2
2019-03-30T03:27:11.893Z,83.2
2019-03-30T03:28:13.394Z,83.0
2019-03-30T03:29:15.000Z,82.8
2019-03-30T03:30:16.524Z,83.5
2019-03-30T03:31:18.030Z,83.6
2019-03-30T03:32:19.592Z,83.1
2019-03-30T03:33:21.082Z,83.6
2019-03-30T03:34:22.611Z,83.4
2019-03-30T03:35:24.115Z,83.3
2019-03-30T03:36:25.553Z,83.7
2019-03-30T03:37:43.523Z,83.7
2019-03-30T03:38:28.531Z,83.8
2019-03-30T03:39:30.025Z,83.6
2019-03-30T03:40:32.248Z,83.4
2019-03-30T03:41:33.720Z,84.1
2019-03-30T03:42:35.261Z,83.6
2019-03-30T03:43:36.715Z,83.9
2019-03-30T03:44:38.201Z,84.3
2019-03-30T03:45:39.672Z,84.6
2019-03-30T03:46:41.169Z,84.4
2019-03-30T03:47:42.847Z,85.1
2019-03-30T03:48:44.419Z,85.0
2019-03-30T03:49:45.919Z,84.7
2019-03-30T03:50:47.444Z,85.3
2019-03-30T03:51:48.902Z,85.5
2019-03-30T03:52:50.456Z,85.7
2019-03-30T03:53:51.938Z,85.5
2019-03-30T03:54:53.439Z,85.7
2019-03-30T03:55:55.047Z,85.6
2019-03-30T03:56:56.685Z,85.3
2019-03-30T03:57:58.131Z,85.4
2019-03-30T03:58:59.679Z,85.7
2019-03-30T04:00:01.262Z,86.0
2019-03-30T04:01:02.793Z,86.0
2019-03-30T04:02:05.210Z,85.7
2019-03-30T04:03:06.810Z,85.7
2019-03-30T04:04:08.518Z,85.9
2019-03-30T04:05:10.044Z,86.4
2019-03-30T04:06:11.586Z,85.8
2019-03-30T04:07:13.176Z,85.8
2019-03-30T04:08:14.699Z,86.2
2019-03-30T04:09:16.172Z,86.4
2019-03-30T04:10:17.615Z,86.0
2019-03-30T04:11:19.091Z,85.8
2019-03-30T04:12:20.567Z,86.0
2019-03-30T04:13:22.005Z,85.9
2019-03-30T04:14:23.471Z,85.8
2019-03-30T04:15:24.983Z,86.1
2019-03-30T04:16:26.451Z,86.4
2019-03-30T04:17:27.887Z,86.4
2019-03-30T04:18:29.361Z,87.0
2019-03-30T04:19:30.827Z,86.9
2019-03-30T04:20:32.301Z,87.4
2019-03-30T04:21:43.644Z,87.4
2019-03-30T04:22:35.234Z,86.9
2019-03-30T04:23:36.843Z,86.9
2019-03-30T04:24:38.196Z,87.0
2019-03-30T04:25:39.678Z,87.5
2019-03-30T04:26:41.181Z,88.1
2019-03-30T04:27:42.624Z,87.8
2019-03-30T04:28:44.094Z,87.8
2019-03-30T04:29:45.691Z,88.1
2019-03-30T04:30:47.225Z,87.9
2019-03-30T04:31:48.730Z,87.9
2019-03-30T04:32:50.229Z,88.0
2019-03-30T04:33:51.735Z,87.6
2019-03-30T04:34:53.174Z,87.5
2019-03-30T04:35:54.694Z,87.8
2019-03-30T04:36:56.159Z,88.1
2019-03-30T04:37:57.671Z,88.1
2019-03-30T04:38:59.207Z,88.5
2019-03-30T04:40:00.660Z,88.3
2019-03-30T04:41:02.126Z,88.9
2019-03-30T04:42:03.615Z,88.2
2019-03-30T04:43:05.086Z,88.3
2019-03-30T04:44:06.541Z,88.5
2019-03-30T04:45:08.023Z,88.2
2019-03-30T04:46:09.463Z,88.4
2019-03-30T04:47:10.897Z,88.2
2019-03-30T04:48:12.375Z,88.9
2019-03-30T04:49:13.910Z,88.5
2019-03-30T04:50:15.353Z,88.2
2019-03-30T04:51:16.849Z,88.3
2019-03-30T04:52:18.316Z,88.6
2019-03-30T04:53:19.903Z,88.1
2019-03-30T04:54:21.461Z,88.4
2019-03-30T04:55:22.996Z,88.1
2019-03-30T04:56:24.533Z,87.9
2019-03-30T04:57:26.077Z,88.5
2019-03-30T04:58:27.644Z,88.4
2019-03-30T04:59:29.185Z,88.3
2019-03-30T05:00:30.770Z,88.5
2019-03-30T05:01:32.222Z,88.1
2019-03-30T05:02:33.737Z,88.3
2019-03-30T05:03:35.301Z,88.6
2019-03-30T05:04:36.785Z,88.4
2019-03-30T05:05:38.298Z,89.1
2019-03-30T05:06:39.862Z,89.5
2019-03-30T05:07:41.421Z,88.4
2019-03-30T05:08:43.035Z,88.7
2019-03-30T05:09:44.627Z,88.9
2019-03-30T05:10:46.174Z,88.8
2019-03-30T05:11:47.606Z,89.0
2019-03-30T05:12:49.215Z,89.1
2019-03-30T05:13:50.747Z,88.8
2019-03-30T05:14:52.321Z,88.8
2019-03-30T05:15:53.864Z,89.0
2019-03-30T05:16:55.355Z,88.9
2019-03-30T05:17:56.911Z,89.2
2019-03-30T05:18:58.463Z,89.1
2019-03-30T05:19:59.918Z,89.0
2019-03-30T05:21:01.380Z,89.3
2019-03-30T05:22:12.057Z,89.4
2019-03-30T05:23:04.508Z,89.5
2019-03-30T05:24:06.026Z,88.9
2019-03-30T05:25:07.673Z,88.9
2019-03-30T05:26:09.197Z,88.8
2019-03-30T05:27:10.694Z,88.7
2019-03-30T05:28:12.229Z,88.7
2019-03-30T05:29:13.753Z,88.5
2019-03-30T05:30:15.271Z,88.3
2019-03-30T05:31:16.790Z,88.3
2019-03-30T05:32:18.344Z,88.4
2019-03-30T05:33:19.810Z,87.7
2019-03-30T05:34:21.365Z,88.0
2019-03-30T05:35:23.815Z,88.1
2019-03-30T05:36:25.255Z,87.7
2019-03-30T05:37:26.768Z,87.7
2019-03-30T05:38:28.357Z,87.9
2019-03-30T05:39:29.923Z,87.9
2019-03-30T05:40:31.548Z,88.3
2019-03-30T05:41:33.041Z,88.2
2019-03-30T05:42:34.534Z,87.5
2019-03-30T05:43:36.059Z,87.8
2019-03-30T05:44:37.546Z,88.0
2019-03-30T05:45:39.055Z,88.0
2019-03-30T05:46:40.737Z,87.8
2019-03-30T05:47:42.252Z,88.1
2019-03-30T05:48:43.766Z,87.9
2019-03-30T05:49:45.244Z,88.1
2019-03-30T05:50:46.897Z,87.9
2019-03-30T05:51:48.491Z,87.6
2019-03-30T05:52:50.098Z,87.5
2019-03-30T05:53:51.564Z,87.3
2019-03-30T05:54:53.130Z,87.2
2019-03-30T05:55:54.656Z,87.4
2019-03-30T05:56:56.241Z,87.0
2019-03-30T05:57:57.780Z,87.1
2019-03-30T05:58:59.536Z,86.9
2019-03-30T06:00:01.192Z,86.9
2019-03-30T06:01:02.797Z,86.4
2019-03-30T06:02:04.303Z,86.1
2019-03-30T06:03:05.916Z,85.9
2019-03-30T06:04:07.504Z,86.5
2019-03-30T06:05:09.030Z,86.3
2019-03-30T06:06:10.584Z,86.3
2019-03-30T06:07:12.088Z,85.9
2019-03-30T06:08:13.596Z,86.1
2019-03-30T06:09:15.172Z,85.9
2019-03-30T06:10:16.727Z,86.3
2019-03-30T06:11:18.227Z,85.6
2019-03-30T06:12:19.805Z,85.4
2019-03-30T06:13:21.381Z,85.7
2019-03-30T06:14:22.925Z,85.6
2019-03-30T06:15:24.474Z,85.8
2019-03-30T06:16:26.019Z,85.1
2019-03-30T06:17:27.487Z,85.0
2019-03-30T06:18:29.006Z,85.0
2019-03-30T06:19:30.482Z,85.3
2019-03-30T06:20:32.005Z,85.3
2019-03-30T06:21:33.519Z,85.3
2019-03-30T06:22:40.086Z,85.2
2019-03-30T06:23:37.511Z,85.0
2019-03-30T06:24:39.381Z,85.1
2019-03-30T06:25:40.906Z,84.7
2019-03-30T06:26:42.524Z,84.4
2019-03-30T06:27:44.031Z,84.6
2019-03-30T06:28:45.519Z,84.7
2019-03-30T06:29:47.034Z,84.7
2019-03-30T06:30:48.502Z,84.7
2019-03-30T06:31:50.083Z,84.8
2019-03-30T06:32:51.981Z,85.0
2019-03-30T06:33:53.447Z,84.4
2019-03-30T06:34:54.930Z,85.0
2019-03-30T06:35:56.463Z,84.6
2019-03-30T06:36:57.987Z,84.5
2019-03-30T06:37:59.483Z,84.2
2019-03-30T06:39:01.035Z,84.2
2019-03-30T06:40:03.277Z,84.0
2019-03-30T06:41:04.802Z,83.8
2019-03-30T06:42:06.270Z,84.2
2019-03-30T06:43:08.156Z,84.2
2019-03-30T06:44:10.328Z,83.7
2019-03-30T06:45:11.948Z,83.6
2019-03-30T06:46:13.456Z,83.6
2019-03-30T06:47:15.017Z,83.6
2019-03-30T06:48:16.502Z,83.6
2019-03-30T06:49:18.015Z,84.0
2019-03-30T06:50:19.581Z,83.8
2019-03-30T06:51:21.050Z,83.7
2019-03-30T06:52:22.525Z,83.9
2019-03-30T06:53:24.043Z,83.6
2019-03-30T06:54:25.542Z,83.9
2019-03-30T06:55:26.998Z,83.7
2019-03-30T06:56:28.490Z,83.7
2019-03-30T06:57:30.063Z,84.0
2019-03-30T06:58:31.525Z,84.0
2019-03-30T06:59:33.093Z,83.2
2019-03-30T07:00:34.564Z,82.6
2019-03-30T07:01:36.037Z,82.7
2019-03-30T07:02:37.523Z,82.8
2019-03-30T07:03:38.902Z,82.4
2019-03-30T07:04:40.334Z,82.1
2019-03-30T07:05:41.740Z,81.9
2019-03-30T07:06:43.190Z,82.2
2019-03-30T07:07:44.805Z,81.4
2019-03-30T07:08:46.228Z,81.7
2019-03-30T07:09:47.676Z,81.4
2019-03-30T07:10:49.142Z,80.5
2019-03-30T07:11:50.654Z,80.6
2019-03-30T07:12:52.187Z,80.7
2019-03-30T07:13:53.656Z,79.5
2019-03-30T07:14:55.132Z,79.2
2019-03-30T07:15:56.652Z,79.1
2019-03-30T07:17:01.428Z,78.3
2019-03-30T07:17:59.470Z,78.2
2019-03-30T07:19:00.900Z,78.6
2019-03-30T07:20:02.308Z,78.5
2019-03-30T07:21:03.710Z,77.5
2019-03-30T07:22:05.131Z,77.2
2019-03-30T07:23:12.222Z,76.1
2019-03-30T07:24:07.959Z,75.9
2019-03-30T07:25:09.426Z,75.9
2019-03-30T07:26:10.995Z,76.1
2019-03-30T07:27:12.571Z,76.4
2019-03-30T07:28:14.037Z,76.1
2019-03-30T07:29:15.483Z,76.0
2019-03-30T07:30:16.980Z,75.7
2019-03-30T07:31:18.524Z,75.9
2019-03-30T07:32:19.994Z,76.0
2019-03-30T07:33:21.540Z,75.6
2019-03-30T07:34:22.947Z,74.7
2019-03-30T07:35:24.365Z,74.8
2019-03-30T07:36:25.767Z,74.6
2019-03-30T07:37:27.179Z,74.7
2019-03-30T07:38:28.595Z,74.9
2019-03-30T07:39:30.050Z,74.3
2019-03-30T07:40:33.835Z,73.9
2019-03-30T07:41:32.916Z,73.8
2019-03-30T07:42:34.357Z,73.7
2019-03-30T07:43:35.839Z,73.9
2019-03-30T07:44:37.258Z,74.0
2019-03-30T07:45:38.716Z,73.6
2019-03-30T07:46:40.115Z,73.2
2019-03-30T07:47:41.560Z,72.5
2019-03-30T07:48:42.996Z,72.7
2019-03-30T07:49:44.418Z,72.6
2019-03-30T07:50:45.844Z,72.4
2019-03-30T07:51:47.355Z,72.5
2019-03-30T07:52:48.790Z,71.5
2019-03-30T07:53:50.258Z,71.2
2019-03-30T07:54:51.664Z,71.3
2019-03-30T07:55:53.095Z,71.9
2019-03-30T07:57:04.188Z,71.2
2019-03-30T07:57:56.064Z,71.2
2019-03-30T07:58:57.446Z,71.4
2019-03-30T07:59:58.902Z,71.3
2019-03-30T08:01:00.313Z,71.4
2019-03-30T08:02:01.733Z,71.0
2019-03-30T08:03:03.179Z,70.7
2019-03-30T08:04:04.559Z,70.2
2019-03-30T08:05:05.973Z,69.8
2019-03-30T08:06:07.406Z,70.3
2019-03-30T08:07:08.811Z,70.4
2019-03-30T08:08:10.239Z,69.9
2019-03-30T08:09:11.635Z,69.9
2019-03-30T08:10:13.032Z,69.7
2019-03-30T08:11:14.636Z,69.8
2019-03-30T08:12:15.830Z,70.1
2019-03-30T08:13:17.241Z,68.9
2019-03-30T08:14:18.834Z,68.8
2019-03-30T08:15:20.248Z,69.0
2019-03-30T08:16:21.671Z,68.9
2019-03-30T08:17:23.087Z,69.2
2019-03-30T08:18:24.526Z,68.9
2019-03-30T08:19:25.941Z,69.0
2019-03-30T08:20:27.372Z,68.9
2019-03-30T08:21:28.792Z,68.9
2019-03-30T08:22:30.251Z,68.5
2019-03-30T08:23:40.209Z,67.6
2019-03-30T08:24:33.057Z,67.7
2019-03-30T08:25:34.478Z,67.2
2019-03-30T08:26:35.898Z,67.0
2019-03-30T08:27:37.321Z,66.8
2019-03-30T08:28:38.743Z,67.4
2019-03-30T08:29:40.405Z,67.2
2019-03-30T08:30:41.900Z,68.5
2019-03-30T08:31:43.392Z,67.7
2019-03-30T08:32:44.917Z,67.4
2019-03-30T08:33:46.419Z,67.4
2019-03-30T08:34:47.969Z,68.2
2019-03-30T08:35:49.534Z,68.3
2019-03-30T08:36:51.068Z,68.3
2019-03-30T08:37:52.601Z,65.4
2019-03-30T08:38:54.003Z,63.0
2019-03-30T08:39:55.397Z,61.0
2019-03-30T08:40:56.863Z,61.2
2019-03-30T08:41:58.287Z,61.2
2019-03-30T08:42:59.729Z,60.0
2019-03-30T08:44:01.367Z,59.8
2019-03-30T08:45:02.766Z,60.6
2019-03-30T08:46:04.169Z,59.3
2019-03-30T08:47:05.599Z,59.1
2019-03-30T08:48:06.999Z,59.6
2019-03-30T08:49:08.417Z,58.8
2019-03-30T08:50:09.830Z,58.1
2019-03-30T08:51:11.245Z,58.1
2019-03-30T08:52:12.662Z,58.0
2019-03-30T08:53:14.077Z,57.3
2019-03-30T08:54:15.502Z,57.1
2019-03-30T08:55:16.911Z,56.9
2019-03-30T08:56:18.323Z,57.2
2019-03-30T08:57:19.716Z,57.2
2019-03-30T08:58:21.161Z,57.3
2019-03-30T08:59:22.598Z,58.3
2019-03-30T09:00:24.027Z,58.5
2019-03-30T09:01:25.432Z,58.7
2019-03-30T09:02:26.833Z,58.4
2019-03-30T09:03:28.250Z,57.3
2019-03-30T09:04:29.653Z,55.8
2019-03-30T09:05:31.072Z,55.7
2019-03-30T09:06:32.459Z,55.6
2019-03-30T09:07:33.883Z,55.2
2019-03-30T09:08:35.290Z,55.7
2019-03-30T09:09:36.687Z,55.2
2019-03-30T09:10:38.080Z,54.6
2019-03-30T09:11:39.492Z,54.8
2019-03-30T09:12:40.891Z,54.7
2019-03-30T09:13:42.289Z,54.5
2019-03-30T09:14:43.703Z,54.3
2019-03-30T09:15:45.107Z,54.2
2019-03-30T09:16:46.507Z,54.2
2019-03-30T09:17:47.908Z,54.7
2019-03-30T09:18:49.316Z,54.0
2019-03-30T09:19:50.715Z,55.0
2019-03-30T09:20:52.140Z,55.0
2019-03-30T09:21:53.545Z,55.6
2019-03-30T09:22:54.948Z,54.3
2019-03-30T09:24:08.945Z,54.0
2019-03-30T09:24:57.771Z,53.9
2019-03-30T09:25:59.165Z,53.9
2019-03-30T09:27:00.695Z,54.7
2019-03-30T09:28:02.095Z,54.7
2019-03-30T09:29:03.496Z,54.6
2019-03-30T09:30:04.891Z,54.8
2019-03-30T09:31:06.332Z,55.0
2019-03-30T09:32:14.318Z,54.7
2019-03-30T09:33:09.110Z,54.7
2019-03-30T09:34:10.518Z,55.3
2019-03-30T09:35:11.928Z,55.6
2019-03-30T09:36:13.334Z,54.2
2019-03-30T09:37:14.742Z,53.4
2019-03-30T09:38:16.172Z,54.5
2019-03-30T09:39:17.571Z,54.1
2019-03-30T09:40:18.968Z,53.4
2019-03-30T09:41:20.383Z,53.1
2019-03-30T09:42:21.781Z,54.0
2019-03-30T09:43:23.176Z,53.9
2019-03-30T09:44:24.584Z,53.6
2019-03-30T09:45:26.002Z,52.0
2019-03-30T09:46:27.454Z,51.9
2019-03-30T09:47:28.897Z,50.6
2019-03-30T09:48:30.313Z,50.9
2019-03-30T09:49:31.712Z,50.9
2019-03-30T09:50:33.137Z,49.9
2019-03-30T09:51:34.531Z,50.6
2019-03-30T09:52:35.970Z,49.9
2019-03-30T09:53:37.378Z,50.1
2019-03-30T09:54:38.826Z,49.1
2019-03-30T09:55:40.229Z,48.4
2019-03-30T09:56:41.632Z,48.0
2019-03-30T09:57:43.036Z,48.4
2019-03-30T09:58:44.434Z,48.6
2019-03-30T09:59:45.860Z,49.2
2019-03-30T10:00:47.267Z,49.3
2019-03-30T10:01:48.682Z,49.5
2019-03-30T10:02:50.080Z,48.5
2019-03-30T10:03:51.483Z,48.2
2019-03-30T10:04:52.893Z,48.6
2019-03-30T10:05:54.300Z,48.5
2019-03-30T10:06:55.692Z,49.7
2019-03-30T10:07:57.092Z,49.5
2019-03-30T10:08:58.491Z,49.2
2019-03-30T10:09:59.894Z,49.5
2019-03-30T10:11:01.298Z,49.7
2019-03-30T10:12:02.699Z,48.0
2019-03-30T10:13:04.101Z,47.9
2019-03-30T10:14:05.649Z,48.1
2019-03-30T10:15:07.070Z,47.7
2019-03-30T10:16:08.475Z,48.1
2019-03-30T10:17:09.895Z,48.5
2019-03-30T10:18:11.316Z,48.1
2019-03-30T10:19:12.714Z,46.2
2019-03-30T10:20:14.114Z,46.6
2019-03-30T10:21:15.557Z,47.2
2019-03-30T10:22:16.988Z,48.6
2019-03-30T10:23:18.411Z,49.2
2019-03-30T10:24:19.814Z,48.1
2019-03-30T10:25:21.323Z,47.1
2019-03-30T10:26:22.725Z,46.5
2019-03-30T10:27:24.123Z,46.4
2019-03-30T10:28:25.694Z,45.7
2019-03-30T10:29:27.062Z,47.2
2019-03-30T10:30:28.525Z,48.6
2019-03-30T10:31:29.934Z,48.5
2019-03-30T10:32:31.354Z,48.7
2019-03-30T10:33:32.753Z,48.0
2019-03-30T10:34:34.181Z,47.8
2019-03-30T10:35:35.583Z,49.1
2019-03-30T10:36:37.007Z,49.4
2019-03-30T10:37:38.388Z,48.6
2019-03-30T10:38:39.787Z,47.7
2019-03-30T10:39:41.187Z,47.2
2019-03-30T10:40:42.589Z,47.2
2019-03-30T10:41:44.000Z,48.1
2019-03-30T10:42:45.401Z,49.5
2019-03-30T10:43:46.810Z,49.2
2019-03-30T10:44:48.249Z,49.8
2019-03-30T10:45:49.667Z,48.6
2019-03-30T10:46:51.062Z,48.3
2019-03-30T10:47:52.479Z,48.7
2019-03-30T10:48:53.876Z,48.6
2019-03-30T10:49:55.275Z,48.3
2019-03-30T10:50:56.678Z,48.5
2019-03-30T10:51:58.097Z,48.2
2019-03-30T10:52:59.524Z,48.4
2019-03-30T10:54:00.955Z,48.3
2019-03-30T10:55:02.346Z,48.6
2019-03-30T10:56:03.765Z,49.9
2019-03-30T10:57:05.166Z,50.0
2019-03-30T10:58:06.589Z,48.5
2019-03-30T10:59:08.006Z,48.9
2019-03-30T11:00:09.534Z,48.3
2019-03-30T11:01:10.939Z,49.3
2019-03-30T11:02:12.346Z,49.1
2019-03-30T11:03:13.779Z,48.3
2019-03-30T11:04:15.301Z,48.3
2019-03-30T11:05:16.706Z,49.5
2019-03-30T11:06:18.149Z,48.8
2019-03-30T11:07:19.562Z,49.1
2019-03-30T11:08:20.991Z,48.1
2019-03-30T11:09:22.418Z,48.3
2019-03-30T11:10:23.877Z,47.8
2019-03-30T11:11:25.272Z,48.5
2019-03-30T11:12:26.671Z,49.8
2019-03-30T11:13:28.079Z,47.6
2019-03-30T11:14:29.518Z,49.3
2019-03-30T11:15:33.797Z,48.6
2019-03-30T11:16:32.314Z,48.7
2019-03-30T11:17:33.711Z,48.5
2019-03-30T11:18:35.150Z,48.4
2019-03-30T11:19:36.560Z,48.4
2019-03-30T11:20:37.959Z,47.6
2019-03-30T11:21:39.365Z,48.8
2019-03-30T11:22:40.790Z,48.2
2019-03-30T11:23:42.190Z,47.2
2019-03-30T11:24:43.589Z,47.2
2019-03-30T11:25:45.034Z,46.8
2019-03-30T11:26:46.428Z,46.7
2019-03-30T11:27:47.851Z,46.0
2019-03-30T11:28:49.264Z,47.4
2019-03-30T11:29:50.751Z,46.9
2019-03-30T11:30:52.045Z,48.3
2019-03-30T11:31:53.443Z,46.9
2019-03-30T11:32:54.846Z,45.6
2019-03-30T11:33:56.256Z,46.4
2019-03-30T11:34:57.693Z,45.6
2019-03-30T11:35:59.123Z,45.9
2019-03-30T11:37:00.528Z,47.7
2019-03-30T11:38:01.933Z,45.7
2019-03-30T11:39:03.364Z,45.9
2019-03-30T11:40:04.780Z,44.4
2019-03-30T11:41:06.195Z,46.9
2019-03-30T11:42:07.623Z,46.8
2019-03-30T11:43:09.021Z,46.9
2019-03-30T11:44:10.425Z,46.2
2019-03-30T11:45:11.834Z,45.8
2019-03-30T11:46:13.367Z,45.8
2019-03-30T11:47:14.767Z,46.3
2019-03-30T11:48:16.167Z,45.5
2019-03-30T11:49:17.562Z,45.9
2019-03-30T11:50:18.963Z,45.6
2019-03-30T11:51:20.324Z,45.2
2019-03-30T11:52:21.739Z,45.8
2019-03-30T11:53:23.147Z,45.8
2019-03-30T11:54:24.548Z,46.0
2019-03-30T11:55:25.943Z,46.6
2019-03-30T11:56:27.348Z,44.9
2019-03-30T11:57:28.787Z,44.1
2019-03-30T11:58:30.236Z,44.3
2019-03-30T11:59:31.650Z,43.2
2019-03-30T12:00:33.093Z,43.6
2019-03-30T12:01:34.493Z,44.0
2019-03-30T12:02:35.920Z,43.2
2019-03-30T12:03:37.334Z,44.1
2019-03-30T12:04:38.767Z,44.7
2019-03-30T12:05:40.172Z,43.5
2019-03-30T12:06:41.599Z,42.0
2019-03-30T12:07:43.013Z,42.7
2019-03-30T12:08:44.428Z,43.9
2019-03-30T12:09:45.832Z,44.0
2019-03-30T12:10:47.239Z,43.0
2019-03-30T12:11:48.645Z,43.4
2019-03-30T12:12:50.047Z,43.0
2019-03-30T12:13:51.474Z,43.0
2019-03-30T12:14:52.876Z,43.1
2019-03-30T12:15:54.278Z,43.8
2019-03-30T12:16:55.685Z,44.1
2019-03-30T12:17:57.091Z,43.3
2019-03-30T12:18:58.569Z,42.8
2019-03-30T12:19:59.889Z,43.0
2019-03-30T12:21:01.297Z,44.5
2019-03-30T12:22:02.699Z,45.0
2019-03-30T12:23:04.101Z,44.3
2019-03-30T12:24:05.517Z,44.7
2019-03-30T12:25:06.935Z,44.3
2019-03-30T12:26:08.342Z,43.9
2019-03-30T12:27:09.749Z,44.1
2019-03-30T12:28:11.173Z,44.4
2019-03-30T12:29:12.598Z,43.9
2019-03-30T12:30:14.010Z,43.6
2019-03-30T12:31:15.420Z,43.7
2019-03-30T12:32:16.839Z,43.8
2019-03-30T12:33:18.348Z,44.1
2019-03-30T12:34:19.806Z,43.9
2019-03-30T12:35:21.244Z,44.2
2019-03-30T12:36:22.652Z,44.5
2019-03-30T12:37:24.058Z,45.6
2019-03-30T12:38:25.505Z,43.9
2019-03-30T12:39:26.916Z,42.9
2019-03-30T12:40:28.314Z,42.9
2019-03-30T12:41:29.751Z,42.9
2019-03-30T12:42:31.172Z,42.0
2019-03-30T12:43:32.580Z,41.5
2019-03-30T12:44:33.974Z,41.0
2019-03-30T12:45:35.379Z,41.4
2019-03-30T12:46:36.780Z,41.7
2019-03-30T12:47:38.297Z,42.0
2019-03-30T12:48:39.797Z,42.4
2019-03-30T12:49:41.093Z,43.2
2019-03-30T12:50:42.502Z,42.6
2019-03-30T12:51:43.920Z,43.9
2019-03-30T12:52:45.341Z,44.4
2019-03-30T12:53:50.347Z,44.8
2019-03-30T12:54:48.131Z,45.5
2019-03-30T12:55:49.852Z,45.6
2019-03-30T12:56:50.925Z,45.4
2019-03-30T12:57:52.359Z,45.9
2019-03-30T12:58:53.769Z,45.4
2019-03-30T12:59:55.178Z,44.5
2019-03-30T13:00:56.596Z,44.2
2019-03-30T13:01:58.093Z,43.1
2019-03-30T13:02:59.395Z,42.7
2019-03-30T13:04:00.798Z,42.6
2019-03-30T13:05:02.216Z,43.1
2019-03-30T13:06:03.613Z,43.1
2019-03-30T13:07:05.018Z,43.1
2019-03-30T13:08:06.433Z,43.1
2019-03-30T13:09:07.925Z,42.8
2019-03-30T13:10:09.328Z,42.3
2019-03-30T13:11:10.731Z,42.2
2019-03-30T13:12:12.145Z,41.9
2019-03-30T13:13:13.590Z,42.1
2019-03-30T13:14:14.998Z,43.5
2019-03-30T13:15:16.411Z,43.9
2019-03-30T13:16:17.811Z,43.7
2019-03-30T13:17:19.221Z,43.8
2019-03-30T13:18:20.638Z,43.9
2019-03-30T13:19:22.054Z,42.9
2019-03-30T13:20:23.536Z,43.2
2019-03-30T13:21:25.009Z,43.2
2019-03-30T13:22:26.424Z,44.0
2019-03-30T13:23:27.839Z,45.0
2019-03-30T13:24:29.251Z,44.2
2019-03-30T13:25:30.671Z,44.5
2019-03-30T13:26:32.091Z,42.9
2019-03-30T13:27:33.533Z,43.2
2019-03-30T13:28:34.963Z,42.2
2019-03-30T13:29:36.407Z,40.6
2019-03-30T13:30:37.827Z,39.7
2019-03-30T13:31:39.238Z,39.1
2019-03-30T13:32:40.665Z,39.2
2019-03-30T13:33:42.083Z,39.0
2019-03-30T13:34:43.498Z,39.7
2019-03-30T13:35:45.017Z,39.3
2019-03-30T13:36:46.443Z,39.2
2019-03-30T13:37:47.895Z,38.3